Time;durP1;ratioP1;P1;durP2;ratioP2;P2;SDS_P1;SDS_P2;PMS_P1;PMS_P2;Temp;Humidity;BMP_temperature;BMP_pressure;BME280_temperature;BME280_humidity;BME280_pressure;Samples;Min_cycle;Max_cycle;Signal;HPM_P1;HPM_P2
2021/12/20 00:02:00;;;;;;;6.22;1.17;;;20.30;61.30;;;;;;5031033;28;20057;-66
2021/12/20 00:04:25;;;;;;;6.65;1.40;;;20.30;61.30;;;;;;5030555;28;20041;-66
2021/12/20 00:06:51;;;;;;;6.53;1.70;;;20.30;61.30;;;;;;5032180;28;20048;-66
2021/12/20 00:09:16;;;;;;;7.20;1.65;;;20.20;61.20;;;;;;5031700;28;20052;-65
2021/12/20 00:11:42;;;;;;;8.27;1.65;;;20.20;61.10;;;;;;5031652;28;20068;-65
2021/12/20 00:14:08;;;;;;;7.93;1.40;;;20.20;61.10;;;;;;5032593;28;20052;-65
2021/12/20 00:16:33;;;;;;;8.43;1.77;;;20.20;61.10;;;;;;5032512;28;20144;-65
2021/12/20 00:18:59;;;;;;;5.05;1.75;;;20.20;61.10;;;;;;5029462;28;20045;-66
2021/12/20 00:21:24;;;;;;;7.82;1.85;;;20.20;61.10;;;;;;5031347;28;20516;-65
2021/12/20 00:23:50;;;;;;;7.05;1.30;;;20.20;61.10;;;;;;5029600;28;20448;-66
2021/12/20 00:26:15;;;;;;;7.07;1.30;;;20.20;61.10;;;;;;5038433;28;20555;-65
2021/12/20 00:28:41;;;;;;;5.82;1.38;;;20.20;61.10;;;;;;5031070;28;20061;-66
2021/12/20 00:31:06;;;;;;;6.57;1.42;;;20.20;61.00;;;;;;5032502;28;20046;-65
2021/12/20 00:33:35;;;;;;;9.75;2.00;;;20.20;60.90;;;;;;5030433;28;20045;-66
2021/12/20 00:36:02;;;;;;;6.32;1.38;;;20.20;60.90;;;;;;5032237;28;20478;-65
2021/12/20 00:41:12;;;;;;;5.78;1.33;;;20.10;60.80;;;;;;5030862;28;20470;-65
2021/12/20 00:43:38;;;;;;;8.88;1.60;;;20.10;60.80;;;;;;5031077;28;20494;-65
2021/12/20 00:46:03;;;;;;;7.57;1.58;;;20.10;60.80;;;;;;5031627;28;20052;-65
2021/12/20 00:48:29;;;;;;;7.68;1.77;;;20.10;60.80;;;;;;5036037;28;20076;-65
2021/12/20 00:50:54;;;;;;;8.38;1.65;;;20.10;60.70;;;;;;5035835;28;20121;-65
2021/12/20 00:53:20;;;;;;;5.70;1.40;;;20.10;60.70;;;;;;5034497;28;20128;-65
2021/12/20 00:55:45;;;;;;;6.00;1.85;;;20.10;60.70;;;;;;5034444;28;20044;-65
2021/12/20 00:58:11;;;;;;;7.22;1.27;;;20.10;60.70;;;;;;5051140;28;20058;-65
2021/12/20 01:00:42;;;;;;;6.93;1.67;;;20.00;60.60;;;;;;5050277;28;20088;-65
2021/12/20 01:03:08;;;;;;;6.95;1.33;;;20.10;60.60;;;;;;5050542;28;20049;-66
2021/12/20 01:05:33;;;;;;;7.22;1.23;;;20.00;60.60;;;;;;5034569;28;20041;-66
2021/12/20 01:08:02;;;;;;;6.85;1.83;;;20.00;60.50;;;;;;5034948;28;20041;-65
2021/12/20 01:10:29;;;;;;;5.03;1.20;;;20.00;60.50;;;;;;5035355;28;20050;-65
2021/12/20 01:12:55;;;;;;;6.60;1.25;;;20.00;60.50;;;;;;5034028;28;20041;-65
2021/12/20 01:15:47;;;;;;;5.95;1.42;;;20.00;60.40;;;;;;5035040;28;20057;-65
2021/12/20 01:18:12;;;;;;;8.25;1.45;;;20.00;60.40;;;;;;5034986;28;20041;-65
2021/12/20 01:20:38;;;;;;;5.65;1.52;;;20.00;60.50;;;;;;5051039;28;20042;-65
2021/12/20 01:23:03;;;;;;;5.78;1.25;;;19.90;60.40;;;;;;5034340;28;20402;-65
2021/12/20 01:25:29;;;;;;;7.20;1.52;;;19.90;60.40;;;;;;5034330;28;20119;-66
2021/12/20 01:27:54;;;;;;;6.43;1.50;;;19.90;60.30;;;;;;5033794;28;20049;-65
2021/12/20 01:30:22;;;;;;;6.03;1.45;;;19.90;60.30;;;;;;5050242;28;20124;-65
2021/12/20 01:32:47;;;;;;;5.00;1.58;;;19.90;60.30;;;;;;5019964;28;20049;-65
2021/12/20 01:35:13;;;;;;;4.47;1.20;;;19.90;60.30;;;;;;5013442;28;20045;-65
2021/12/20 01:37:39;;;;;;;7.97;1.65;;;19.90;60.20;;;;;;5030782;28;20072;-65
2021/12/20 01:40:05;;;;;;;5.72;1.38;;;19.90;60.20;;;;;;5014047;28;20065;-66
2021/12/20 01:42:33;;;;;;;7.68;1.42;;;19.90;60.20;;;;;;5013195;28;20041;-65
2021/12/20 01:44:59;;;;;;;7.10;1.38;;;19.90;60.20;;;;;;5013920;28;20056;-65
2021/12/20 01:47:35;;;;;;;7.63;1.63;;;19.90;60.20;;;;;;5015506;28;20050;-65
2021/12/20 01:50:10;;;;;;;7.85;1.60;;;19.80;60.10;;;;;;5014230;28;20046;-65
2021/12/20 01:52:43;;;;;;;6.50;1.50;;;19.80;60.10;;;;;;5015019;28;20056;-65
2021/12/20 01:55:19;;;;;;;7.50;1.95;;;19.80;60.00;;;;;;5015307;28;20065;-65
2021/12/20 01:57:46;;;;;;;7.50;1.40;;;19.80;60.00;;;;;;5013405;28;20050;-65
2021/12/20 02:00:14;;;;;;;6.32;1.50;;;19.80;60.00;;;;;;5030135;28;20402;-65
2021/12/20 02:02:42;;;;;;;5.30;1.42;;;19.80;60.00;;;;;;5014995;28;20398;-65
2021/12/20 02:05:20;;;;;;;5.97;1.33;;;19.80;60.00;;;;;;5029406;28;20110;-65
2021/12/20 02:07:59;;;;;;;5.45;1.50;;;19.80;59.90;;;;;;5014644;28;20049;-65
2021/12/20 02:10:25;;;;;;;5.88;1.40;;;19.80;59.90;;;;;;5014278;28;20042;-65
2021/12/20 02:12:51;;;;;;;5.65;1.88;;;19.70;59.80;;;;;;5029605;28;20057;-65
2021/12/20 02:15:16;;;;;;;7.07;1.38;;;19.70;59.80;;;;;;5029768;28;20038;-65
2021/12/20 02:17:42;;;;;;;6.47;1.55;;;19.70;59.80;;;;;;5013551;28;20057;-65
2021/12/20 02:20:08;;;;;;;6.75;1.17;;;19.70;59.70;;;;;;5013470;28;20088;-65
2021/12/20 02:22:34;;;;;;;7.22;1.60;;;19.70;59.80;;;;;;5015188;28;20513;-65
2021/12/20 02:25:00;;;;;;;5.65;1.52;;;19.70;59.70;;;;;;5033311;28;20048;-65
2021/12/20 02:27:25;;;;;;;5.70;1.40;;;19.70;59.70;;;;;;5032914;28;20487;-65
2021/12/20 02:30:05;;;;;;;6.28;1.42;;;19.70;59.70;;;;;;5032841;28;20056;-65
2021/12/20 02:36:58;;;;;;;5.47;1.23;;;19.70;59.60;;;;;;5032991;28;20057;-65
2021/12/20 02:38:39;;;;;;;5.28;1.23;;;19.70;59.60;;;;;;5031853;28;20538;-65
2021/12/20 02:41:09;;;;;;;4.88;1.10;;;19.70;59.60;;;;;;5032813;28;20049;-64
2021/12/20 02:43:39;;;;;;;5.18;1.58;;;19.70;59.60;;;;;;5031412;28;20095;-64
2021/12/20 02:46:11;;;;;;;6.32;1.23;;;19.70;59.60;;;;;;5048519;28;20099;-64
2021/12/20 02:48:37;;;;;;;3.30;1.08;;;19.70;59.50;;;;;;5049262;28;20511;-65
2021/12/20 02:51:02;;;;;;;6.32;1.20;;;19.70;59.50;;;;;;5048931;28;20128;-64
2021/12/20 02:53:28;;;;;;;6.30;1.30;;;19.70;59.60;;;;;;5047055;28;20075;-65
2021/12/20 02:55:53;;;;;;;4.85;1.20;;;19.70;59.50;;;;;;5033570;28;20041;-64
2021/12/20 02:58:19;;;;;;;6.97;1.45;;;19.70;59.50;;;;;;5032462;28;20671;-65
2021/12/20 03:00:44;;;;;;;5.03;1.30;;;19.70;59.40;;;;;;5047255;28;20049;-65
2021/12/20 03:03:10;;;;;;;6.00;1.33;;;19.70;59.50;;;;;;5033655;28;20049;-65
2021/12/20 03:05:36;;;;;;;5.03;1.30;;;19.70;59.40;;;;;;5032575;28;20049;-65
2021/12/20 03:08:03;;;;;;;5.45;1.40;;;19.80;59.40;;;;;;5047735;28;20053;-65
2021/12/20 03:10:30;;;;;;;4.95;1.23;;;19.70;59.30;;;;;;5029972;28;20045;-65
2021/12/20 03:12:57;;;;;;;5.30;1.30;;;19.80;59.40;;;;;;5031739;28;20101;-65
2021/12/20 03:15:25;;;;;;;5.80;1.63;;;19.80;59.30;;;;;;5032459;28;20401;-65
2021/12/20 03:17:54;;;;;;;3.95;1.40;;;19.80;59.30;;;;;;5048479;28;20041;-65
2021/12/20 03:20:21;;;;;;;5.25;1.45;;;19.80;59.30;;;;;;5048731;28;20045;-65
2021/12/20 03:22:47;;;;;;;5.93;1.55;;;19.80;59.30;;;;;;5032103;28;20116;-65
2021/12/20 03:25:13;;;;;;;4.22;1.23;;;19.80;59.20;;;;;;5048742;28;20523;-65
2021/12/20 03:27:38;;;;;;;4.85;1.15;;;19.80;59.30;;;;;;5031255;28;20033;-66
2021/12/20 03:30:05;;;;;;;6.28;1.38;;;19.80;59.20;;;;;;5048082;28;20095;-66
2021/12/20 03:32:31;;;;;;;5.00;1.42;;;19.80;59.20;;;;;;5032204;28;20140;-66
2021/12/20 03:34:56;;;;;;;5.10;1.17;;;19.80;59.10;;;;;;5031917;28;20121;-65
2021/12/20 03:37:22;;;;;;;5.80;1.33;;;19.90;59.20;;;;;;5033290;28;20116;-66
2021/12/20 03:39:47;;;;;;;3.60;0.80;;;19.90;59.10;;;;;;5031769;28;20443;-66
2021/12/20 03:42:13;;;;;;;5.43;1.30;;;19.90;59.10;;;;;;5047588;28;20477;-66
2021/12/20 03:44:43;;;;;;;5.32;1.45;;;19.90;59.10;;;;;;5031874;28;20037;-65
2021/12/20 03:47:09;;;;;;;3.80;0.98;;;19.90;59.10;;;;;;5032678;28;20409;-66
2021/12/20 03:49:35;;;;;;;5.15;1.00;;;19.90;59.00;;;;;;5030719;28;20512;-65
2021/12/20 03:52:01;;;;;;;4.38;1.13;;;19.90;59.00;;;;;;5032657;28;20482;-65
2021/12/20 03:54:26;;;;;;;7.30;1.35;;;19.90;59.00;;;;;;5031146;28;20405;-65
2021/12/20 03:56:52;;;;;;;4.47;1.15;;;19.90;58.90;;;;;;5031437;28;20199;-65
2021/12/20 03:59:17;;;;;;;4.05;0.80;;;19.90;58.90;;;;;;5031166;28;20054;-65
2021/12/20 04:01:43;;;;;;;5.80;1.27;;;19.90;58.80;;;;;;5031162;28;20045;-65
2021/12/20 04:04:08;;;;;;;4.68;1.13;;;20.00;58.90;;;;;;5031992;28;20056;-65
2021/12/20 04:06:35;;;;;;;5.47;1.20;;;20.00;58.80;;;;;;5031313;28;20441;-65
2021/12/20 04:09:00;;;;;;;4.65;1.13;;;20.00;58.80;;;;;;5031006;28;20421;-65
2021/12/20 04:11:26;;;;;;;4.32;1.00;;;20.00;58.80;;;;;;5030530;28;20475;-65
2021/12/20 04:13:52;;;;;;;3.85;1.00;;;20.00;58.80;;;;;;5030871;28;20041;-65
2021/12/20 04:16:17;;;;;;;4.53;1.05;;;20.00;58.80;;;;;;5031764;28;20072;-65
2021/12/20 04:18:43;;;;;;;5.03;1.15;;;20.00;58.70;;;;;;5030468;28;20046;-65
2021/12/20 04:21:10;;;;;;;4.53;1.10;;;20.00;58.70;;;;;;5034841;28;20049;-65
2021/12/20 04:23:36;;;;;;;4.55;0.98;;;20.00;58.70;;;;;;5036919;28;20080;-65
2021/12/20 04:26:02;;;;;;;4.93;1.10;;;20.00;58.70;;;;;;5034742;28;20131;-65
2021/12/20 04:28:27;;;;;;;4.95;1.13;;;20.00;58.60;;;;;;5036588;28;20397;-65
2021/12/20 04:30:53;;;;;;;5.13;1.23;;;20.00;59.30;;;;;;5035338;28;20049;-65
2021/12/20 04:33:18;;;;;;;5.60;1.60;;;20.10;58.70;;;;;;5036229;28;20041;-65
2021/12/20 04:35:44;;;;;;;5.60;1.20;;;20.10;58.70;;;;;;5036177;28;20064;-65
2021/12/20 04:38:10;;;;;;;4.63;1.13;;;20.10;58.60;;;;;;5034305;28;20734;-65
2021/12/20 04:40:36;;;;;;;4.07;0.80;;;20.10;58.60;;;;;;5035210;28;20080;-65
2021/12/20 04:43:01;;;;;;;4.78;1.20;;;20.10;58.50;;;;;;5034740;28;20083;-65
2021/12/20 04:45:28;;;;;;;3.97;0.90;;;20.10;58.60;;;;;;5034612;28;20121;-65
2021/12/20 04:47:53;;;;;;;5.35;1.33;;;20.10;58.50;;;;;;5051072;28;20061;-65
2021/12/20 04:50:19;;;;;;;4.18;1.10;;;20.10;58.40;;;;;;5036159;28;20034;-65
2021/12/20 04:52:45;;;;;;;3.78;1.02;;;20.10;58.40;;;;;;5035036;28;20079;-65
2021/12/20 04:55:11;;;;;;;4.35;1.00;;;20.10;58.30;;;;;;5051610;28;20479;-66
2021/12/20 04:57:37;;;;;;;4.35;0.82;;;20.10;58.30;;;;;;5034628;28;20524;-66
2021/12/20 05:00:08;;;;;;;3.35;0.85;;;20.10;58.30;;;;;;5035005;28;20053;-65
2021/12/20 05:02:34;;;;;;;4.00;0.98;;;20.10;58.20;;;;;;5034920;28;20049;-65
2021/12/20 05:04:59;;;;;;;3.60;0.90;;;20.10;58.20;;;;;;5034608;28;20034;-65
2021/12/20 05:07:26;;;;;;;5.05;1.15;;;20.10;58.20;;;;;;5032424;28;20067;-65
2021/12/20 05:09:57;;;;;;;4.40;1.10;;;20.10;58.10;;;;;;5034413;28;20041;-65
2021/12/20 05:12:23;;;;;;;4.15;1.00;;;20.20;58.10;;;;;;5035984;28;20045;-65
2021/12/20 05:14:48;;;;;;;3.75;0.90;;;20.20;58.10;;;;;;5033414;28;20042;-65
2021/12/20 05:17:14;;;;;;;4.05;0.80;;;20.20;58.00;;;;;;5034200;28;20049;-65
2021/12/20 05:19:41;;;;;;;3.97;1.02;;;20.20;58.00;;;;;;5034602;28;20041;-65
2021/12/20 05:22:07;;;;;;;3.28;0.75;;;20.20;57.90;;;;;;5034987;28;20049;-65
2021/12/20 05:24:33;;;;;;;3.67;0.90;;;20.20;57.90;;;;;;5034173;28;20087;-65
2021/12/20 05:26:58;;;;;;;3.13;1.00;;;20.20;57.90;;;;;;5033985;28;20141;-65
2021/12/20 05:29:24;;;;;;;3.58;1.00;;;20.20;57.80;;;;;;5034679;28;20488;-65
2021/12/20 05:31:51;;;;;;;4.25;0.88;;;20.20;57.80;;;;;;5033016;28;20038;-65
2021/12/20 05:34:16;;;;;;;2.88;0.80;;;20.20;57.80;;;;;;5033610;28;20125;-65
2021/12/20 05:36:42;;;;;;;4.40;1.20;;;20.20;57.80;;;;;;5033766;28;20124;-65
2021/12/20 05:39:07;;;;;;;4.45;0.88;;;20.20;57.70;;;;;;5034252;28;20095;-65
2021/12/20 05:41:33;;;;;;;4.70;0.95;;;20.20;57.60;;;;;;5049747;28;20072;-65
2021/12/20 05:43:58;;;;;;;3.33;1.15;;;20.20;57.60;;;;;;5034994;28;20124;-65
2021/12/20 05:46:24;;;;;;;4.00;1.25;;;20.20;57.60;;;;;;5050509;28;20049;-65
2021/12/20 05:48:49;;;;;;;3.75;1.00;;;20.20;57.50;;;;;;5034356;28;20046;-65
2021/12/20 05:51:15;;;;;;;1.95;0.73;;;20.20;57.50;;;;;;5033795;28;20092;-65
2021/12/20 05:53:40;;;;;;;3.55;0.90;;;20.20;57.50;;;;;;5034804;28;20124;-65
2021/12/20 05:56:06;;;;;;;4.68;0.93;;;20.20;57.40;;;;;;5049579;28;20037;-65
2021/12/20 05:58:31;;;;;;;4.30;1.02;;;20.20;57.40;;;;;;5049891;28;20080;-65
2021/12/20 06:00:57;;;;;;;3.08;0.80;;;20.20;57.40;;;;;;5049795;28;20084;-65
2021/12/20 06:03:23;;;;;;;4.35;0.90;;;20.20;57.30;;;;;;5033944;28;20072;-65
2021/12/20 06:05:48;;;;;;;3.35;1.00;;;20.20;57.30;;;;;;5050063;28;20049;-65
2021/12/20 06:08:14;;;;;;;3.45;1.08;;;20.20;57.30;;;;;;5033441;28;20084;-65
2021/12/20 06:10:39;;;;;;;3.58;0.80;;;20.20;57.30;;;;;;5033255;28;20052;-65
2021/12/20 06:13:05;;;;;;;5.00;1.08;;;20.20;57.20;;;;;;5034084;28;20470;-65
2021/12/20 06:15:31;;;;;;;3.10;0.63;;;20.20;57.10;;;;;;5033253;28;20068;-65
2021/12/20 06:17:56;;;;;;;2.20;0.70;;;20.20;57.20;;;;;;5033679;28;20052;-65
2021/12/20 06:20:22;;;;;;;3.88;0.93;;;20.20;57.10;;;;;;5032917;28;20041;-65
2021/12/20 06:22:47;;;;;;;3.45;0.80;;;20.20;57.40;;;;;;5049554;28;20045;-65
2021/12/20 06:25:14;;;;;;;2.85;0.77;;;20.20;57.00;;;;;;5032803;28;20133;-65
2021/12/20 06:27:40;;;;;;;3.72;0.80;;;20.20;57.00;;;;;;5034219;28;20091;-65
2021/12/20 06:30:08;;;;;;;4.18;1.17;;;20.20;56.90;;;;;;5034075;28;20413;-66
2021/12/20 06:32:35;;;;;;;3.40;0.90;;;20.20;56.90;;;;;;5033554;28;20091;-65
2021/12/20 06:35:00;;;;;;;3.35;0.90;;;20.20;56.80;;;;;;5032587;28;20054;-66
2021/12/20 06:37:26;;;;;;;3.65;1.17;;;20.20;56.80;;;;;;5031798;28;20049;-66
2021/12/20 06:39:51;;;;;;;4.25;1.00;;;20.30;56.90;;;;;;5033790;28;20045;-66
2021/12/20 06:42:17;;;;;;;3.85;0.77;;;20.30;56.80;;;;;;5034146;28;20045;-66
2021/12/20 06:44:43;;;;;;;3.58;1.00;;;20.30;56.80;;;;;;5032954;28;20041;-65
2021/12/20 06:47:09;;;;;;;3.83;0.80;;;20.30;56.70;;;;;;5032708;28;20509;-61
2021/12/20 06:49:35;;;;;;;3.55;1.00;;;20.30;56.70;;;;;;5032507;28;20121;-64
2021/12/20 06:52:02;;;;;;;4.80;1.13;;;20.30;56.60;;;;;;5033020;28;20129;-65
2021/12/20 06:54:28;;;;;;;3.42;1.05;;;20.30;56.60;;;;;;5033844;28;20115;-64
2021/12/20 06:56:53;;;;;;;5.55;1.23;;;20.30;56.60;;;;;;5033011;28;20432;-65
2021/12/20 06:59:19;;;;;;;3.90;0.80;;;20.30;56.60;;;;;;5031621;28;20053;-65
2021/12/20 07:01:44;;;;;;;4.28;0.88;;;20.30;56.60;;;;;;5031711;28;20041;-65
2021/12/20 07:04:12;;;;;;;3.88;0.90;;;20.30;56.50;;;;;;5033584;28;20053;-65
2021/12/20 07:06:38;;;;;;;3.53;0.77;;;20.30;56.50;;;;;;5032871;28;20524;-65
2021/12/20 07:09:03;;;;;;;4.82;1.00;;;20.30;56.50;;;;;;5032174;28;20049;-65
2021/12/20 07:11:29;;;;;;;3.70;1.00;;;20.30;56.50;;;;;;5033243;28;20077;-65
2021/12/20 07:13:55;;;;;;;3.58;0.98;;;20.40;56.60;;;;;;5047746;28;20132;-65
2021/12/20 07:16:20;;;;;;;4.13;0.80;;;20.30;56.50;;;;;;5032193;28;20041;-65
2021/12/20 07:18:46;;;;;;;4.25;1.00;;;20.30;56.50;;;;;;5031671;28;20061;-64
2021/12/20 07:21:12;;;;;;;3.13;0.77;;;20.30;56.60;;;;;;5031114;28;20045;-67
2021/12/20 07:23:37;;;;;;;5.05;0.90;;;20.30;56.60;;;;;;5031139;28;20045;-64
2021/12/20 07:26:03;;;;;;;2.30;0.80;;;20.30;56.60;;;;;;5031431;28;20064;-65
2021/12/20 07:28:29;;;;;;;5.38;0.85;;;20.30;56.80;;;;;;5022599;28;20038;-65
2021/12/20 07:30:54;;;;;;;4.63;0.90;;;20.40;57.10;;;;;;5032245;28;20171;-65
2021/12/20 07:33:20;;;;;;;4.47;1.02;;;20.40;57.20;;;;;;5030973;28;20122;-65
2021/12/20 07:35:46;;;;;;;2.97;0.90;;;20.40;57.30;;;;;;5030218;28;20038;-65
2021/12/20 07:38:13;;;;;;;6.50;1.23;;;20.40;57.40;;;;;;5031339;28;20060;-66
2021/12/20 07:40:43;;;;;;;3.80;1.03;;;20.40;57.50;;;;;;5033106;28;20041;-66
2021/12/20 07:43:08;;;;;;;4.80;0.88;;;20.40;57.50;;;;;;5031705;28;20045;-66
2021/12/20 07:45:35;;;;;;;4.72;1.23;;;20.50;57.70;;;;;;5033142;28;20064;-66
2021/12/20 07:48:00;;;;;;;5.57;0.90;;;20.40;57.70;;;;;;5031762;28;20057;-67
2021/12/20 07:50:26;;;;;;;8.18;1.23;;;20.50;57.70;;;;;;5031859;28;20048;-65
2021/12/20 07:52:51;;;;;;;4.30;0.90;;;20.50;57.80;;;;;;5032726;28;20049;-65
2021/12/20 07:55:17;;;;;;;4.20;1.05;;;20.50;57.80;;;;;;5031771;28;20045;-65
2021/12/20 07:57:42;;;;;;;2.70;0.82;;;20.50;57.80;;;;;;5031338;28;20132;-65
2021/12/20 08:00:09;;;;;;;2.78;0.95;;;20.50;57.80;;;;;;5032877;28;20042;-65
2021/12/20 08:02:34;;;;;;;3.45;0.90;;;20.50;57.90;;;;;;5031791;28;20049;-65
2021/12/20 08:05:00;;;;;;;4.35;1.30;;;20.50;57.90;;;;;;5031205;28;20045;-66
2021/12/20 08:07:26;;;;;;;7.13;1.00;;;20.50;57.90;;;;;;5031214;28;20037;-65
2021/12/20 08:09:51;;;;;;;4.72;1.30;;;20.50;57.80;;;;;;5031557;28;20099;-65
2021/12/20 08:12:17;;;;;;;5.32;1.05;;;20.50;57.60;;;;;;5032699;28;20045;-65
2021/12/20 08:14:43;;;;;;;6.05;1.10;;;20.50;57.60;;;;;;5032228;28;20053;-66
2021/12/20 08:17:08;;;;;;;4.90;1.20;;;20.60;57.70;;;;;;5031115;28;20041;-66
2021/12/20 08:19:34;;;;;;;3.60;0.80;;;20.60;57.50;;;;;;5031573;28;20056;-65
2021/12/20 08:21:59;;;;;;;4.68;1.08;;;20.60;57.50;;;;;;5047279;28;20120;-65
2021/12/20 08:24:25;;;;;;;7.65;1.20;;;20.60;57.50;;;;;;5031567;28;20055;-65
2021/12/20 08:26:50;;;;;;;7.15;1.20;;;20.60;57.40;;;;;;5032433;28;20129;-65
2021/12/20 08:29:16;;;;;;;5.68;0.90;;;20.60;57.20;;;;;;5015251;28;20490;-66
2021/12/20 08:31:41;;;;;;;5.60;1.00;;;20.60;57.20;;;;;;5010513;28;20053;-66
2021/12/20 08:34:07;;;;;;;4.13;1.15;;;20.60;57.10;;;;;;5011601;28;20085;-65
2021/12/20 08:36:32;;;;;;;5.70;1.15;;;20.60;57.10;;;;;;5011774;28;20045;-65
2021/12/20 08:38:58;;;;;;;5.78;1.05;;;20.60;57.10;;;;;;5011407;28;20049;-67
2021/12/20 08:41:24;;;;;;;4.43;1.10;;;20.60;56.90;;;;;;5020965;28;20050;-66
2021/12/20 08:43:49;;;;;;;5.95;1.40;;;20.60;56.80;;;;;;5030626;28;20079;-66
2021/12/20 08:46:15;;;;;;;4.97;1.15;;;20.60;56.90;;;;;;5031504;28;20073;-66
2021/12/20 08:48:42;;;;;;;4.35;1.05;;;20.60;56.90;;;;;;5030867;28;20041;-67
2021/12/20 08:51:08;;;;;;;5.65;0.98;;;20.60;56.90;;;;;;5031532;28;20053;-66
2021/12/20 08:53:34;;;;;;;4.03;1.00;;;20.60;57.00;;;;;;5032358;28;20048;-66
2021/12/20 08:55:59;;;;;;;6.43;1.25;;;20.60;57.00;;;;;;5032232;28;20073;-65
2021/12/20 08:58:25;;;;;;;4.82;1.08;;;20.60;56.90;;;;;;5031333;28;20116;-66
2021/12/20 09:00:51;;;;;;;4.03;1.30;;;20.70;57.10;;;;;;5031884;28;20083;-66
2021/12/20 09:03:17;;;;;;;4.25;1.30;;;20.70;57.00;;;;;;5029952;28;20049;-65
2021/12/20 09:05:42;;;;;;;6.35;1.20;;;20.70;56.90;;;;;;5029055;28;20046;-65
2021/12/20 09:08:09;;;;;;;6.10;1.50;;;20.70;56.70;;;;;;5032510;28;20091;-65
2021/12/20 09:10:35;;;;;;;4.78;1.20;;;20.70;56.70;;;;;;5036024;28;20049;-65
2021/12/20 09:13:01;;;;;;;3.55;1.20;;;20.70;56.60;;;;;;5034918;28;20049;-65
2021/12/20 09:15:26;;;;;;;5.30;1.33;;;20.70;56.50;;;;;;5035933;28;20120;-64
2021/12/20 09:17:52;;;;;;;4.20;1.13;;;20.70;56.50;;;;;;5035371;28;20056;-65
2021/12/20 09:20:21;;;;;;;6.13;1.27;;;20.70;56.30;;;;;;5034421;28;20145;-66
2021/12/20 09:22:51;;;;;;;3.88;1.00;;;20.70;56.20;;;;;;5035144;28;20046;-66
2021/12/20 09:25:17;;;;;;;5.32;1.60;;;20.70;56.20;;;;;;5034648;28;20045;-66
2021/12/20 09:27:43;;;;;;;7.22;1.30;;;20.80;55.80;;;;;;5034550;28;20556;-65
2021/12/20 09:30:09;;;;;;;5.88;1.50;;;20.80;55.70;;;;;;5035255;28;20069;-65
2021/12/20 09:32:34;;;;;;;5.20;1.30;;;20.80;55.60;;;;;;5035353;28;20102;-66
2021/12/20 09:35:00;;;;;;;4.40;1.30;;;20.80;55.70;;;;;;5034226;28;20124;-65
2021/12/20 09:37:25;;;;;;;5.18;1.20;;;20.80;55.60;;;;;;5034185;28;20076;-65
2021/12/20 09:39:54;;;;;;;5.65;1.58;;;20.80;55.60;;;;;;5033800;28;20416;-65
2021/12/20 09:42:20;;;;;;;5.90;1.42;;;20.80;55.60;;;;;;5034128;28;20053;-66
2021/12/20 09:44:46;;;;;;;6.82;1.27;;;20.80;55.60;;;;;;5017286;28;20045;-63
2021/12/20 09:47:11;;;;;;;4.60;1.60;;;20.80;55.60;;;;;;5016979;28;20045;-67
2021/12/20 09:49:37;;;;;;;7.63;1.70;;;20.80;55.60;;;;;;5032247;28;20052;-66
2021/12/20 09:52:03;;;;;;;5.65;1.77;;;20.80;55.70;;;;;;5034712;28;20041;-66
2021/12/20 09:54:29;;;;;;;6.68;1.60;;;20.80;55.70;;;;;;5034428;28;20096;-65
2021/12/20 09:56:55;;;;;;;6.32;1.52;;;20.80;55.80;;;;;;5049935;28;20049;-65
2021/12/20 09:59:22;;;;;;;4.25;1.27;;;20.90;55.80;;;;;;5034777;28;20045;-63
2021/12/20 10:01:49;;;;;;;7.78;1.38;;;20.90;55.90;;;;;;5033926;28;20053;-60
2021/12/20 10:04:15;;;;;;;5.20;1.40;;;20.80;55.80;;;;;;5034690;28;20051;-61
2021/12/20 10:06:41;;;;;;;6.15;1.50;;;20.90;55.90;;;;;;5034768;28;20045;-63
2021/12/20 10:09:13;;;;;;;6.88;1.35;;;20.90;55.90;;;;;;5034272;28;20049;-60
2021/12/20 10:11:39;;;;;;;7.53;1.48;;;20.90;56.00;;;;;;5033745;28;20041;-63
2021/12/20 10:14:09;;;;;;;6.78;1.40;;;20.90;56.00;;;;;;5033147;28;20496;-66
2021/12/20 10:16:35;;;;;;;9.10;1.65;;;20.90;56.10;;;;;;5049255;28;20099;-70
2021/12/20 10:19:01;;;;;;;6.82;1.50;;;20.90;56.30;;;;;;5032498;28;20095;-74
2021/12/20 10:21:38;;;;;;;6.57;1.60;;;20.90;56.40;;;;;;5033240;28;20046;-74
2021/12/20 10:24:04;;;;;;;7.97;1.35;;;20.90;56.40;;;;;;5031825;28;20521;-69
2021/12/20 10:26:38;;;;;;;3.63;1.15;;;20.90;56.50;;;;;;5024339;28;20069;-72
2021/12/20 10:29:15;;;;;;;5.28;1.48;;;20.90;56.60;;;;;;5013128;28;20095;-72
2021/12/20 10:31:40;;;;;;;6.72;1.85;;;20.90;56.70;;;;;;5031275;28;20080;-71
2021/12/20 10:34:06;;;;;;;5.85;1.45;;;20.90;56.70;;;;;;5032350;28;20049;-70
2021/12/20 10:36:32;;;;;;;6.57;1.60;;;20.90;56.80;;;;;;5033420;28;20041;-71
2021/12/20 10:38:59;;;;;;;8.55;1.95;;;20.90;56.90;;;;;;5032537;28;20069;-70
2021/12/20 10:41:39;;;;;;;4.10;1.35;;;20.90;57.00;;;;;;5032813;28;20053;-71
2021/12/20 10:44:17;;;;;;;5.40;1.38;;;21.00;57.00;;;;;;5044873;28;20124;-73
2021/12/20 10:46:47;;;;;;;5.60;1.10;;;21.00;57.00;;;;;;5032147;28;20091;-75
2021/12/20 10:49:17;;;;;;;5.15;1.17;;;21.00;57.00;;;;;;5032082;28;20095;-73
2021/12/20 10:51:50;;;;;;;6.47;1.27;;;21.00;57.10;;;;;;5031070;28;20041;-73
2021/12/20 10:54:18;;;;;;;6.28;1.40;;;21.00;57.20;;;;;;5033968;28;20056;-76
2021/12/20 10:56:48;;;;;;;;;;;21.00;57.20;;;;;;5034194;28;20088;-73
2021/12/20 10:59:13;;;;;;;7.45;1.98;;;21.00;57.20;;;;;;5031640;28;19921;-70
2021/12/20 11:04:21;;;;;;;5.13;1.65;;;21.00;57.20;;;;;;5032193;28;20508;-70
2021/12/20 11:09:15;;;;;;;5.60;1.73;;;21.00;57.10;;;;;;5031534;28;20053;-71
2021/12/20 11:11:45;;;;;;;6.47;1.48;;;21.00;57.10;;;;;;5032165;28;20048;-71
2021/12/20 11:14:11;;;;;;;6.28;1.52;;;21.00;57.00;;;;;;5049221;28;20083;-70
2021/12/20 11:16:42;;;;;;;5.72;1.45;;;21.00;57.00;;;;;;5033516;28;20501;-70
2021/12/20 11:19:12;;;;;;;4.45;1.20;;;21.00;57.00;;;;;;5032813;28;20128;-70
2021/12/20 11:21:44;;;;;;;5.60;1.27;;;21.10;57.20;;;;;;5033586;28;20052;-70
2021/12/20 11:24:16;;;;;;;7.55;1.58;;;21.00;57.10;;;;;;5032846;28;20161;-71
2021/12/20 11:26:41;;;;;;;4.50;1.20;;;21.00;57.10;;;;;;5047534;28;20044;-73
2021/12/20 11:29:08;;;;;;;4.57;1.65;;;21.00;57.10;;;;;;5032034;28;20049;-72
2021/12/20 11:31:33;;;;;;;7.50;1.40;;;21.00;57.00;;;;;;5047598;28;20120;-72
2021/12/20 11:34:00;;;;;;;4.57;1.20;;;21.00;56.90;;;;;;5030810;28;20248;-71
2021/12/20 11:36:25;;;;;;;5.38;1.00;;;21.00;56.90;;;;;;5033352;28;20056;-72
2021/12/20 11:38:51;;;;;;;4.38;1.40;;;21.00;56.80;;;;;;5033055;28;20405;-71
2021/12/20 11:41:17;;;;;;;3.35;1.10;;;21.00;56.70;;;;;;5029109;28;20122;-69
2021/12/20 11:43:43;;;;;;;6.15;1.50;;;21.00;56.80;;;;;;5014644;28;20085;-71
2021/12/20 11:46:08;;;;;;;6.57;1.40;;;21.00;56.70;;;;;;5014330;28;20049;-71
2021/12/20 11:48:34;;;;;;;6.00;1.30;;;21.00;56.80;;;;;;5030316;28;20045;-72
2021/12/20 11:50:59;;;;;;;9.63;1.50;;;21.00;56.60;;;;;;5031530;28;20419;-71
2021/12/20 11:53:25;;;;;;;6.82;1.55;;;21.00;56.30;;;;;;5031555;28;20045;-69
2021/12/20 11:55:52;;;;;;;4.88;1.30;;;21.00;56.00;;;;;;5030510;28;20053;-72
2021/12/20 11:58:24;;;;;;;6.78;1.40;;;21.00;56.10;;;;;;5029975;28;20057;-69
2021/12/20 12:01:00;;;;;;;4.32;1.60;;;21.00;56.10;;;;;;5031351;28;20049;-70
2021/12/20 12:03:33;;;;;;;8.25;1.65;;;21.00;56.30;;;;;;5033552;28;20474;-70
2021/12/20 12:06:03;;;;;;;4.78;1.17;;;21.00;56.40;;;;;;5035314;28;20050;-70
2021/12/20 12:08:41;;;;;;;3.60;1.23;;;21.00;56.50;;;;;;5032066;28;20052;-70
2021/12/20 12:11:07;;;;;;;;;;;21.00;56.60;;;;;;5033388;28;20088;-70
2021/12/20 12:13:49;;;;;;;5.10;1.20;;;21.00;56.70;;;;;;5032591;28;20202;-69
2021/12/20 12:16:27;;;;;;;4.57;1.20;;;21.00;56.70;;;;;;5030621;28;20049;-70
2021/12/20 12:18:53;;;;;;;5.45;1.50;;;21.00;56.70;;;;;;5031009;28;20124;-70
2021/12/20 12:21:37;;;;;;;2.55;0.90;;;21.00;56.90;;;;;;5031360;28;20126;-73
2021/12/20 12:24:07;;;;;;;6.40;1.35;;;21.10;56.90;;;;;;5030066;28;20056;-72
2021/12/20 12:26:46;;;;;;;4.75;1.15;;;21.00;56.90;;;;;;5031211;28;20482;-73
2021/12/20 12:29:22;;;;;;;;;;;21.10;57.10;;;;;;5030371;28;20484;-70
2021/12/20 12:31:54;;;;;;;5.55;1.48;;;21.10;57.10;;;;;;5030897;28;19921;-70
2021/12/20 12:34:19;;;;;;;3.35;0.85;;;21.10;57.20;;;;;;5047276;28;20455;-71
2021/12/20 12:36:45;;;;;;;4.20;1.25;;;21.00;57.10;;;;;;5030215;28;20515;-71
2021/12/20 12:39:22;;;;;;;4.10;0.90;;;21.10;57.20;;;;;;5032521;28;20045;-71
2021/12/20 12:42:00;;;;;;;4.35;0.95;;;21.10;57.20;;;;;;5032339;28;20371;-70
2021/12/20 12:44:28;;;;;;;5.13;1.40;;;21.10;57.10;;;;;;5035994;28;20041;-73
2021/12/20 12:46:58;;;;;;;3.80;1.05;;;21.10;57.10;;;;;;5034584;28;20400;-72
2021/12/20 12:49:27;;;;;;;3.97;0.85;;;21.10;57.30;;;;;;5035003;28;20496;-72
2021/12/20 12:52:27;;;;;;;4.80;1.00;;;21.10;57.20;;;;;;5035406;28;20099;-73
2021/12/20 12:54:57;;;;;;;3.35;1.00;;;21.10;57.10;;;;;;5034643;28;20111;-72
2021/12/20 12:57:23;;;;;;;6.18;1.23;;;21.10;57.10;;;;;;5033732;28;20098;-73
2021/12/20 12:59:54;;;;;;;3.08;0.98;;;21.10;57.10;;;;;;5050992;28;20152;-73